createdAt,value
2019-04-13T00:00:37.515Z,0.00
2019-04-13T00:01:37.545Z,0.00
2019-04-13T00:02:37.440Z,0.00
2019-04-13T00:03:37.538Z,0.00
2019-04-13T00:04:37.388Z,0.00
2019-04-13T00:05:37.363Z,0.00
2019-04-13T00:06:37.282Z,0.00
2019-04-13T00:07:37.242Z,0.00
2019-04-13T00:08:37.178Z,0.00
2019-04-13T00:09:37.136Z,0.00
2019-04-13T00:10:37.228Z,0.00
2019-04-13T00:11:37.167Z,0.00
2019-04-13T00:12:37.149Z,0.00
2019-04-13T00:13:37.130Z,0.00
2019-04-13T00:14:36.995Z,0.00
2019-04-13T00:15:36.880Z,0.00
2019-04-13T00:16:36.848Z,0.00
2019-04-13T00:17:36.990Z,0.00
2019-04-13T00:18:36.839Z,0.00
2019-04-13T00:19:36.900Z,0.00
2019-04-13T00:20:36.805Z,0.00
2019-04-13T00:21:36.680Z,0.00
2019-04-13T00:22:36.638Z,0.00
2019-04-13T00:23:36.754Z,0.00
2019-04-13T00:24:36.527Z,0.00
2019-04-13T00:25:36.618Z,0.00
2019-04-13T00:26:36.449Z,0.00
2019-04-13T00:27:36.364Z,0.00
2019-04-13T00:28:36.370Z,0.00
2019-04-13T00:29:36.361Z,0.00
2019-04-13T00:30:36.355Z,0.00
2019-04-13T00:31:36.286Z,0.00
2019-04-13T00:32:36.259Z,0.00
2019-04-13T00:33:36.136Z,0.00
2019-04-13T00:34:41.290Z,0.00
2019-04-13T00:35:36.176Z,0.00
2019-04-13T00:36:36.149Z,0.00
2019-04-13T00:37:36.048Z,0.00
2019-04-13T00:38:35.940Z,0.00
2019-04-13T00:39:35.889Z,0.00
2019-04-13T00:40:35.859Z,0.00
2019-04-13T00:41:35.835Z,0.00
2019-04-13T00:42:35.988Z,0.00
2019-04-13T00:43:35.761Z,0.00
2019-04-13T00:44:35.842Z,0.00
2019-04-13T00:45:35.646Z,0.00
2019-04-13T00:46:35.616Z,0.00
2019-04-13T00:47:35.591Z,0.00
2019-04-13T00:48:35.545Z,0.00
2019-04-13T00:49:35.468Z,0.00
2019-04-13T00:50:35.423Z,0.00
2019-04-13T00:51:35.415Z,0.00
2019-04-13T00:52:35.409Z,0.00
2019-04-13T00:53:35.395Z,0.00
2019-04-13T00:54:35.284Z,0.00
2019-04-13T00:55:35.300Z,0.00
2019-04-13T00:56:35.285Z,0.00
2019-04-13T00:57:35.171Z,0.00
2019-04-13T00:58:35.112Z,0.00
2019-04-13T00:59:35.075Z,0.00
2019-04-13T01:00:35.040Z,0.00
2019-04-13T01:01:34.982Z,0.00
2019-04-13T01:02:35.135Z,0.00
2019-04-13T01:03:35.029Z,0.00
2019-04-13T01:04:34.841Z,0.00
2019-04-13T01:05:34.973Z,0.00
2019-04-13T01:06:34.766Z,0.00
2019-04-13T01:07:34.734Z,0.00
2019-04-13T01:08:34.684Z,0.00
2019-04-13T01:09:34.754Z,0.00
2019-04-13T01:10:34.606Z,0.00
2019-04-13T01:11:34.682Z,0.00
2019-04-13T01:12:34.517Z,0.00
2019-04-13T01:13:34.591Z,0.00
2019-04-13T01:14:34.442Z,0.00
2019-04-13T01:15:34.388Z,0.00
2019-04-13T01:16:34.362Z,0.00
2019-04-13T01:17:34.981Z,0.00
2019-04-13T01:18:34.317Z,0.00
2019-04-13T01:19:34.276Z,0.00
2019-04-13T01:20:34.246Z,0.00
2019-04-13T01:21:34.214Z,0.00
2019-04-13T01:22:34.087Z,0.00
2019-04-13T01:23:34.149Z,0.00
2019-04-13T01:24:34.073Z,0.00
2019-04-13T01:25:34.074Z,0.00
2019-04-13T01:26:33.958Z,0.00
2019-04-13T01:27:33.904Z,0.00
2019-04-13T01:28:33.919Z,0.00
2019-04-13T01:29:33.831Z,0.00
2019-04-13T01:30:33.799Z,0.00
2019-04-13T01:31:33.724Z,0.00
2019-04-13T01:32:33.721Z,0.00
2019-04-13T01:33:33.646Z,0.00
2019-04-13T01:34:33.625Z,0.00
2019-04-13T01:35:33.595Z,0.00
2019-04-13T01:36:33.701Z,0.00
2019-04-13T01:37:33.530Z,0.00
2019-04-13T01:38:33.473Z,0.00
2019-04-13T01:39:33.582Z,0.00
2019-04-13T01:40:33.418Z,0.00
2019-04-13T01:41:33.313Z,0.00
2019-04-13T01:42:33.295Z,0.00
2019-04-13T01:43:33.517Z,0.00
2019-04-13T01:44:33.210Z,0.00
2019-04-13T01:45:33.173Z,0.00
2019-04-13T01:46:33.136Z,0.00
2019-04-13T01:47:33.156Z,0.00
2019-04-13T01:48:33.075Z,0.00
2019-04-13T01:49:33.176Z,0.00
2019-04-13T01:50:32.936Z,0.00
2019-04-13T01:51:32.975Z,0.00
2019-04-13T01:52:32.843Z,0.00
2019-04-13T01:53:32.809Z,0.00
2019-04-13T01:54:32.772Z,0.00
2019-04-13T01:55:32.872Z,0.00
2019-04-13T01:56:32.707Z,0.00
2019-04-13T01:57:40.496Z,0.00
2019-04-13T01:58:32.608Z,0.00
2019-04-13T01:59:32.594Z,0.00
2019-04-13T02:00:32.632Z,0.00
2019-04-13T02:01:32.540Z,0.00
2019-04-13T02:02:32.510Z,0.00
2019-04-13T02:03:32.517Z,0.00
2019-04-13T02:04:32.355Z,0.00
2019-04-13T02:05:32.990Z,0.00
2019-04-13T02:06:32.433Z,0.00
2019-04-13T02:07:32.343Z,0.00
2019-04-13T02:08:32.281Z,0.00
2019-04-13T02:09:32.188Z,0.00
2019-04-13T02:10:32.194Z,0.00
2019-04-13T02:11:32.093Z,0.00
2019-04-13T02:12:32.114Z,0.00
2019-04-13T02:13:32.071Z,0.00
2019-04-13T02:14:32.074Z,0.00
2019-04-13T02:15:31.887Z,0.00
2019-04-13T02:16:31.878Z,0.00
2019-04-13T02:17:31.809Z,0.00
2019-04-13T02:18:31.788Z,0.00
2019-04-13T02:19:31.706Z,0.00
2019-04-13T02:20:31.680Z,0.00
2019-04-13T02:21:31.656Z,0.00
2019-04-13T02:22:33.590Z,0.00
2019-04-13T02:23:31.740Z,0.00
2019-04-13T02:24:31.512Z,0.00
2019-04-13T02:25:31.466Z,0.00
2019-04-13T02:26:31.436Z,0.00
2019-04-13T02:27:31.401Z,0.00
2019-04-13T02:28:31.343Z,0.00
2019-04-13T02:29:31.396Z,0.00
2019-04-13T02:30:31.327Z,0.00
2019-04-13T02:31:31.233Z,0.00
2019-04-13T02:32:31.229Z,0.00
2019-04-13T02:33:31.228Z,0.00
2019-04-13T02:34:32.699Z,0.00
2019-04-13T02:35:36.177Z,0.00
2019-04-13T02:36:31.120Z,0.00
2019-04-13T02:37:30.979Z,0.00
2019-04-13T02:38:30.906Z,0.00
2019-04-13T02:39:30.880Z,0.00
2019-04-13T02:40:30.860Z,0.00
2019-04-13T02:41:31.040Z,0.00
2019-04-13T02:42:30.804Z,0.00
2019-04-13T02:43:30.914Z,0.00
2019-04-13T02:44:30.816Z,0.00
2019-04-13T02:45:30.641Z,0.00
2019-04-13T02:46:30.581Z,0.00
2019-04-13T02:47:30.554Z,0.00
2019-04-13T02:48:30.526Z,0.00
2019-04-13T02:49:30.483Z,0.00
2019-04-13T02:50:30.414Z,0.00
2019-04-13T02:51:30.407Z,0.00
2019-04-13T02:52:30.438Z,0.00
2019-04-13T02:53:30.298Z,0.00
2019-04-13T02:54:30.286Z,0.00
2019-04-13T02:55:30.195Z,0.00
2019-04-13T02:56:31.003Z,0.00
2019-04-13T02:57:30.124Z,0.00
2019-04-13T02:58:30.089Z,0.00
2019-04-13T02:59:30.178Z,0.00
2019-04-13T03:00:29.985Z,0.00
2019-04-13T03:01:29.952Z,0.00
2019-04-13T03:02:29.944Z,0.00
2019-04-13T03:03:29.862Z,0.00
2019-04-13T03:04:29.862Z,0.00
2019-04-13T03:05:29.810Z,0.00
2019-04-13T03:06:29.736Z,0.00
2019-04-13T03:07:29.805Z,0.00
2019-04-13T03:08:29.647Z,0.00
2019-04-13T03:09:29.625Z,0.00
2019-04-13T03:10:29.643Z,0.00
2019-04-13T03:11:29.654Z,0.00
2019-04-13T03:12:29.478Z,0.00
2019-04-13T03:13:29.998Z,0.00
2019-04-13T03:14:29.391Z,0.00
2019-04-13T03:15:29.390Z,0.00
2019-04-13T03:16:29.353Z,0.00
2019-04-13T03:17:29.377Z,0.00
2019-04-13T03:18:29.344Z,0.00
2019-04-13T03:19:29.319Z,0.00
2019-04-13T03:20:29.192Z,0.00
2019-04-13T03:21:29.102Z,0.00
2019-04-13T03:22:29.094Z,0.00
2019-04-13T03:23:29.050Z,0.00
2019-04-13T03:24:28.974Z,0.00
2019-04-13T03:25:29.050Z,0.00
2019-04-13T03:26:28.892Z,0.00
2019-04-13T03:27:28.918Z,0.00
2019-04-13T03:28:28.894Z,0.00
2019-04-13T03:29:28.816Z,0.00
2019-04-13T03:30:28.811Z,0.00
2019-04-13T03:31:28.721Z,0.00
2019-04-13T03:32:28.660Z,0.00
2019-04-13T03:33:28.689Z,0.00
2019-04-13T03:34:28.640Z,0.00
2019-04-13T03:35:28.525Z,0.00
2019-04-13T03:36:28.584Z,0.00
2019-04-13T03:37:28.419Z,0.00
2019-04-13T03:38:28.427Z,0.00
2019-04-13T03:39:28.335Z,0.00
2019-04-13T03:40:28.421Z,0.00
2019-04-13T03:41:28.244Z,0.00
2019-04-13T03:42:28.251Z,0.00
2019-04-13T03:43:28.205Z,0.00
2019-04-13T03:44:28.183Z,0.00
2019-04-13T03:45:28.122Z,0.00
2019-04-13T03:46:28.110Z,0.00
2019-04-13T03:47:27.981Z,0.00
2019-04-13T03:48:27.967Z,0.00
2019-04-13T03:49:27.940Z,0.00
2019-04-13T03:50:27.916Z,0.00
2019-04-13T03:51:27.832Z,0.00
2019-04-13T03:52:27.865Z,0.00
2019-04-13T03:53:27.750Z,0.00
2019-04-13T03:54:27.694Z,0.00
2019-04-13T03:55:27.694Z,0.00
2019-04-13T03:56:27.592Z,0.00
2019-04-13T03:57:27.596Z,0.00
2019-04-13T03:58:27.521Z,0.00
2019-04-13T03:59:27.625Z,0.00
2019-04-13T04:00:27.443Z,0.00
2019-04-13T04:01:27.530Z,0.00
2019-04-13T04:02:27.368Z,0.00
2019-04-13T04:03:27.412Z,0.00
2019-04-13T04:04:27.467Z,0.00
2019-04-13T04:05:27.312Z,0.00
2019-04-13T04:06:27.177Z,0.00
2019-04-13T04:07:27.154Z,0.00
2019-04-13T04:08:27.121Z,0.00
2019-04-13T04:09:27.091Z,0.00
2019-04-13T04:10:27.045Z,0.00
2019-04-13T04:11:27.048Z,0.00
2019-04-13T04:12:26.956Z,5.63
2019-04-13T04:13:26.977Z,5.63
2019-04-13T04:14:26.836Z,5.63
2019-04-13T04:15:26.926Z,5.63
2019-04-13T04:16:26.776Z,5.63
2019-04-13T04:17:26.778Z,5.63
2019-04-13T04:18:27.803Z,11.25
2019-04-13T04:19:26.685Z,11.25
2019-04-13T04:20:26.572Z,11.25
2019-04-13T04:21:26.566Z,11.25
2019-04-13T04:22:26.546Z,16.88
2019-04-13T04:23:26.530Z,16.88
2019-04-13T04:24:26.395Z,16.88
2019-04-13T04:25:26.381Z,22.50
2019-04-13T04:26:26.324Z,22.50
2019-04-13T04:27:26.294Z,22.50
2019-04-13T04:28:26.260Z,28.13
2019-04-13T04:29:26.208Z,28.13
2019-04-13T04:30:26.153Z,33.75
2019-04-13T04:31:26.122Z,33.75
2019-04-13T04:32:26.054Z,33.75
2019-04-13T04:33:26.028Z,39.38
2019-04-13T04:34:26.000Z,39.38
2019-04-13T04:35:25.955Z,45.00
2019-04-13T04:36:25.906Z,45.00
2019-04-13T04:37:25.983Z,50.63
2019-04-13T04:38:25.957Z,50.63
2019-04-13T04:39:25.766Z,56.25
2019-04-13T04:40:25.833Z,56.25
2019-04-13T04:41:25.743Z,61.88
2019-04-13T04:42:25.717Z,61.88
2019-04-13T04:43:25.615Z,67.50
2019-04-13T04:44:25.677Z,67.50
2019-04-13T04:45:25.540Z,67.50
2019-04-13T04:46:25.504Z,73.13
2019-04-13T04:47:25.423Z,73.13
2019-04-13T04:48:25.415Z,78.75
2019-04-13T04:49:25.423Z,78.75
2019-04-13T04:50:25.428Z,84.38
2019-04-13T04:51:25.412Z,84.38
2019-04-13T04:52:25.215Z,84.38
2019-04-13T04:53:25.169Z,84.38
2019-04-13T04:54:25.246Z,90.00
2019-04-13T04:55:25.206Z,95.63
2019-04-13T04:56:25.113Z,95.63
2019-04-13T04:57:24.983Z,106.88
2019-04-13T04:58:25.005Z,112.50
2019-04-13T04:59:24.931Z,118.13
2019-04-13T05:00:24.900Z,118.13
2019-04-13T05:01:25.520Z,123.75
2019-04-13T05:02:24.841Z,129.38
2019-04-13T05:03:24.723Z,135.00
2019-04-13T05:04:24.796Z,140.63
2019-04-13T05:05:24.652Z,135.00
2019-04-13T05:06:35.366Z,135.00
2019-04-13T05:07:24.615Z,135.00
2019-04-13T05:08:24.564Z,146.25
2019-04-13T05:09:24.521Z,146.25
2019-04-13T05:10:24.475Z,146.25
2019-04-13T05:11:24.406Z,151.88
2019-04-13T05:12:24.337Z,151.88
2019-04-13T05:13:24.374Z,146.25
2019-04-13T05:14:25.032Z,140.63
2019-04-13T05:15:24.238Z,135.00
2019-04-13T05:16:24.195Z,123.75
2019-04-13T05:17:24.149Z,118.13
2019-04-13T05:18:24.140Z,106.88
2019-04-13T05:19:24.066Z,101.25
2019-04-13T05:20:24.061Z,101.25
2019-04-13T05:21:23.978Z,106.88
2019-04-13T05:22:26.422Z,106.88
2019-04-13T05:23:23.904Z,112.50
2019-04-13T05:24:23.840Z,118.13
2019-04-13T05:25:23.803Z,112.50
2019-04-13T05:26:23.788Z,118.13
2019-04-13T05:27:23.719Z,123.75
2019-04-13T05:28:23.763Z,129.38
2019-04-13T05:29:23.640Z,129.38
2019-04-13T05:30:23.675Z,129.38
2019-04-13T05:31:25.181Z,135.00
2019-04-13T05:32:23.491Z,146.25
2019-04-13T05:33:23.473Z,157.50
2019-04-13T05:34:23.406Z,157.50
2019-04-13T05:35:23.368Z,163.13
2019-04-13T05:36:23.337Z,163.13
2019-04-13T05:37:23.311Z,157.50
2019-04-13T05:38:23.247Z,151.88
2019-04-13T05:39:23.197Z,146.25
2019-04-13T05:40:23.174Z,157.50
2019-04-13T05:41:23.157Z,168.75
2019-04-13T05:42:23.083Z,174.38
2019-04-13T05:43:23.028Z,180.00
2019-04-13T05:44:22.994Z,180.00
2019-04-13T05:45:22.953Z,180.00
2019-04-13T05:46:22.952Z,180.00
2019-04-13T05:47:22.856Z,185.63
2019-04-13T05:48:22.811Z,185.63
2019-04-13T05:49:23.041Z,191.25
2019-04-13T05:50:22.785Z,191.25
2019-04-13T05:51:22.734Z,185.63
2019-04-13T05:52:22.784Z,185.63
2019-04-13T05:53:22.670Z,174.38
2019-04-13T05:54:22.575Z,168.75
2019-04-13T05:55:22.562Z,163.13
2019-04-13T05:56:22.501Z,168.75
2019-04-13T05:57:22.450Z,168.75
2019-04-13T05:58:22.428Z,174.38
2019-04-13T05:59:22.381Z,185.63
2019-04-13T06:00:22.351Z,191.25
2019-04-13T06:01:22.329Z,185.63
2019-04-13T06:02:22.266Z,168.75
2019-04-13T06:03:22.207Z,157.50
2019-04-13T06:04:22.222Z,146.25
2019-04-13T06:05:22.130Z,140.63
2019-04-13T06:06:22.112Z,140.63
2019-04-13T06:07:22.056Z,140.63
2019-04-13T06:08:22.012Z,140.63
2019-04-13T06:09:21.976Z,135.00
2019-04-13T06:10:21.909Z,135.00
2019-04-13T06:11:21.886Z,140.63
2019-04-13T06:12:21.830Z,146.25
2019-04-13T06:13:24.086Z,146.25
2019-04-13T06:14:21.746Z,140.63
2019-04-13T06:15:21.733Z,135.00
2019-04-13T06:16:21.673Z,129.38
2019-04-13T06:17:21.665Z,129.38
2019-04-13T06:18:21.663Z,129.38
2019-04-13T06:19:21.531Z,129.38
2019-04-13T06:20:21.499Z,135.00
2019-04-13T06:21:21.468Z,129.38
2019-04-13T06:22:21.421Z,129.38
2019-04-13T06:23:21.411Z,129.38
2019-04-13T06:24:22.013Z,129.38
2019-04-13T06:25:29.022Z,140.63
2019-04-13T06:26:21.251Z,163.13
2019-04-13T06:27:21.242Z,174.38
2019-04-13T06:28:21.175Z,174.38
2019-04-13T06:29:21.284Z,174.38
2019-04-13T06:30:21.094Z,174.38
2019-04-13T06:31:21.050Z,168.75
2019-04-13T06:32:21.022Z,157.50
2019-04-13T06:33:20.982Z,151.88
2019-04-13T06:34:20.952Z,146.25
2019-04-13T06:35:23.404Z,157.50
2019-04-13T06:36:20.844Z,168.75
2019-04-13T06:37:20.975Z,191.25
2019-04-13T06:38:21.802Z,208.13
2019-04-13T06:39:20.720Z,219.38
2019-04-13T06:40:20.703Z,230.63
2019-04-13T06:41:20.660Z,247.50
2019-04-13T06:42:20.629Z,264.38
2019-04-13T06:43:20.549Z,286.88
2019-04-13T06:44:20.516Z,315.00
2019-04-13T06:45:20.501Z,337.50
2019-04-13T06:46:20.443Z,354.38
2019-04-13T06:47:20.376Z,354.38
2019-04-13T06:48:20.345Z,343.13
2019-04-13T06:49:21.222Z,315.00
2019-04-13T06:50:20.312Z,292.50
2019-04-13T06:51:20.250Z,286.88
2019-04-13T06:52:20.180Z,298.13
2019-04-13T06:53:20.155Z,303.75
2019-04-13T06:54:20.092Z,315.00
2019-04-13T06:55:20.052Z,320.63
2019-04-13T06:56:20.015Z,331.88
2019-04-13T06:57:20.000Z,337.50
2019-04-13T06:58:19.976Z,337.50
2019-04-13T06:59:19.908Z,320.63
2019-04-13T07:00:19.856Z,303.75
2019-04-13T07:01:19.845Z,298.13
2019-04-13T07:02:19.761Z,303.75
2019-04-13T07:03:19.759Z,315.00
2019-04-13T07:04:19.695Z,331.88
2019-04-13T07:05:19.846Z,343.13
2019-04-13T07:06:19.646Z,348.75
2019-04-13T07:07:24.187Z,354.38
2019-04-13T07:08:21.997Z,354.38
2019-04-13T07:09:19.581Z,360.00
2019-04-13T07:10:30.172Z,360.00
2019-04-13T07:11:21.546Z,360.00
2019-04-13T07:12:19.376Z,348.75
2019-04-13T07:13:19.317Z,337.50
2019-04-13T07:14:19.297Z,320.63
2019-04-13T07:15:19.224Z,315.00
2019-04-13T07:16:19.234Z,315.00
2019-04-13T07:17:19.191Z,320.63
2019-04-13T07:18:19.161Z,326.25
2019-04-13T07:19:19.076Z,343.13
2019-04-13T07:20:19.143Z,365.63
2019-04-13T07:21:20.071Z,393.75
2019-04-13T07:22:19.756Z,405.00
2019-04-13T07:23:18.915Z,416.25
2019-04-13T07:24:18.917Z,421.88
2019-04-13T07:25:18.834Z,421.88
2019-04-13T07:26:18.948Z,421.88
2019-04-13T07:27:18.744Z,421.88
2019-04-13T07:28:18.704Z,405.00
2019-04-13T07:29:18.690Z,382.50
2019-04-13T07:30:18.650Z,348.75
2019-04-13T07:31:18.596Z,320.63
2019-04-13T07:32:18.565Z,286.88
2019-04-13T07:33:18.532Z,275.63
2019-04-13T07:34:18.464Z,264.38
2019-04-13T07:35:18.515Z,264.38
2019-04-13T07:36:18.438Z,270.00
2019-04-13T07:37:18.347Z,270.00
2019-04-13T07:38:18.461Z,270.00
2019-04-13T07:39:18.274Z,258.75
2019-04-13T07:40:20.440Z,247.50
2019-04-13T07:41:18.182Z,230.63
2019-04-13T07:42:18.168Z,219.38
2019-04-13T07:43:18.119Z,208.13
2019-04-13T07:44:18.076Z,208.13
2019-04-13T07:45:21.958Z,213.75
2019-04-13T07:46:18.000Z,219.38
2019-04-13T07:47:17.952Z,230.63
2019-04-13T07:48:19.345Z,236.25
2019-04-13T07:49:17.861Z,241.88
2019-04-13T07:50:17.827Z,253.13
2019-04-13T07:51:20.643Z,264.38
2019-04-13T07:52:17.740Z,275.63
2019-04-13T07:53:17.736Z,286.88
2019-04-13T07:54:17.690Z,303.75
2019-04-13T07:55:19.731Z,337.50
2019-04-13T07:56:17.585Z,371.25
2019-04-13T07:57:17.535Z,405.00
2019-04-13T07:58:17.517Z,450.00
2019-04-13T07:59:18.432Z,489.38
2019-04-13T08:00:17.497Z,517.50
2019-04-13T08:01:17.429Z,528.75
2019-04-13T08:02:17.334Z,551.25
2019-04-13T08:03:17.307Z,556.88
2019-04-13T08:04:17.276Z,562.50
2019-04-13T08:05:17.228Z,551.25
2019-04-13T08:06:17.274Z,551.25
2019-04-13T08:07:17.147Z,551.25
2019-04-13T08:08:17.087Z,562.50
2019-04-13T08:09:17.046Z,585.00
2019-04-13T08:10:17.018Z,607.50
2019-04-13T08:11:16.985Z,624.38
2019-04-13T08:12:17.229Z,630.00
2019-04-13T08:13:16.891Z,624.38
2019-04-13T08:14:16.876Z,618.75
2019-04-13T08:15:16.840Z,590.63
2019-04-13T08:16:16.813Z,562.50
2019-04-13T08:17:16.732Z,545.63
2019-04-13T08:18:16.684Z,517.50
2019-04-13T08:19:16.674Z,500.63
2019-04-13T08:20:16.814Z,483.75
2019-04-13T08:21:16.650Z,461.25
2019-04-13T08:22:16.647Z,438.75
2019-04-13T08:23:16.555Z,416.25
2019-04-13T08:24:16.559Z,399.38
2019-04-13T08:25:16.418Z,382.50
2019-04-13T08:26:16.367Z,376.88
2019-04-13T08:27:16.343Z,354.38
2019-04-13T08:28:16.287Z,348.75
2019-04-13T08:29:16.264Z,348.75
2019-04-13T08:30:16.977Z,354.38
2019-04-13T08:31:16.251Z,360.00
2019-04-13T08:32:16.134Z,354.38
2019-04-13T08:33:16.091Z,348.75
2019-04-13T08:34:16.187Z,343.13
2019-04-13T08:35:16.007Z,331.88
2019-04-13T08:36:16.175Z,320.63
2019-04-13T08:37:15.945Z,303.75
2019-04-13T08:38:15.898Z,286.88
2019-04-13T08:39:16.002Z,281.25
2019-04-13T08:40:15.843Z,275.63
2019-04-13T08:41:20.160Z,270.00
2019-04-13T08:42:19.804Z,270.00
2019-04-13T08:43:15.747Z,264.38
2019-04-13T08:44:18.295Z,264.38
2019-04-13T08:45:15.671Z,258.75
2019-04-13T08:46:15.571Z,264.38
2019-04-13T08:47:15.554Z,270.00
2019-04-13T08:48:15.512Z,292.50
2019-04-13T08:49:15.577Z,309.38
2019-04-13T08:50:15.427Z,331.88
2019-04-13T08:51:15.641Z,360.00
2019-04-13T08:52:15.359Z,376.88
2019-04-13T08:53:15.353Z,399.38
2019-04-13T08:54:15.328Z,433.13
2019-04-13T08:55:15.204Z,472.50
2019-04-13T08:56:15.254Z,506.25
2019-04-13T08:57:15.151Z,551.25
2019-04-13T08:58:15.106Z,601.88
2019-04-13T08:59:15.221Z,658.13
2019-04-13T09:00:15.016Z,714.38
2019-04-13T09:01:15.904Z,781.88
2019-04-13T09:02:14.963Z,843.75
2019-04-13T09:03:14.927Z,911.25
2019-04-13T09:04:14.930Z,950.63
2019-04-13T09:05:14.818Z,990.00
2019-04-13T09:06:17.334Z,1012.50
2019-04-13T09:07:15.113Z,1029.38
2019-04-13T09:08:28.595Z,1057.50
2019-04-13T09:09:14.658Z,1108.13
2019-04-13T09:10:16.528Z,1181.25
2019-04-13T09:11:18.779Z,1276.88
2019-04-13T09:12:14.628Z,1366.88
2019-04-13T09:13:15.193Z,1428.75
2019-04-13T09:14:15.833Z,1473.75
2019-04-13T09:15:14.798Z,1518.75
2019-04-13T09:16:14.976Z,1541.25
2019-04-13T09:17:17.850Z,1580.63
2019-04-13T09:18:14.383Z,1636.88
2019-04-13T09:19:16.694Z,1760.63
2019-04-13T09:20:15.475Z,2047.50
2019-04-13T09:21:14.625Z,2632.50
2019-04-13T09:22:14.178Z,2964.38
2019-04-13T09:23:14.294Z,2480.63
2019-04-13T09:24:14.069Z,2401.88
2019-04-13T09:25:14.047Z,2430.00
2019-04-13T09:26:14.002Z,2818.13
2019-04-13T09:27:14.087Z,3442.50
2019-04-13T09:28:13.913Z,3526.88
2019-04-13T09:29:14.782Z,2677.50
2019-04-13T09:30:13.831Z,2283.75
2019-04-13T09:31:13.811Z,2008.13
2019-04-13T09:32:13.785Z,1749.38
2019-04-13T09:33:13.747Z,1586.25
2019-04-13T09:34:28.203Z,1496.25
2019-04-13T09:35:13.690Z,1440.00
2019-04-13T09:36:13.701Z,1355.63
2019-04-13T09:37:13.683Z,1248.75
2019-04-13T09:38:13.542Z,1141.88
2019-04-13T09:39:13.498Z,1035.00
2019-04-13T09:40:13.475Z,950.63
2019-04-13T09:41:13.491Z,894.38
2019-04-13T09:42:13.400Z,860.63
2019-04-13T09:43:13.372Z,838.13
2019-04-13T09:44:13.338Z,821.25
2019-04-13T09:45:13.328Z,793.13
2019-04-13T09:46:13.415Z,770.63
2019-04-13T09:47:13.234Z,753.75
2019-04-13T09:48:16.072Z,725.63
2019-04-13T09:49:13.168Z,703.13
2019-04-13T09:50:13.119Z,697.50
2019-04-13T09:51:13.122Z,703.13
2019-04-13T09:52:13.131Z,714.38
2019-04-13T09:53:13.033Z,720.00
2019-04-13T09:54:12.977Z,725.63
2019-04-13T09:55:15.607Z,742.50
2019-04-13T09:56:12.901Z,742.50
2019-04-13T09:57:12.893Z,748.13
2019-04-13T09:58:12.890Z,770.63
2019-04-13T09:59:12.783Z,815.63
2019-04-13T10:00:12.777Z,855.00
2019-04-13T10:01:12.708Z,894.38
2019-04-13T10:02:14.952Z,922.50
2019-04-13T10:03:12.619Z,933.75
2019-04-13T10:04:12.945Z,956.25
2019-04-13T10:05:12.733Z,984.38
2019-04-13T10:06:12.546Z,1023.75
2019-04-13T10:07:13.550Z,1051.88
2019-04-13T10:08:12.459Z,1057.50
2019-04-13T10:09:12.401Z,1029.38
2019-04-13T10:10:13.383Z,984.38
2019-04-13T10:11:12.315Z,900.00
2019-04-13T10:12:12.293Z,815.63
2019-04-13T10:13:12.277Z,725.63
2019-04-13T10:14:12.222Z,703.13
2019-04-13T10:15:12.290Z,736.88
2019-04-13T10:16:12.132Z,798.75
2019-04-13T10:17:12.126Z,877.50
2019-04-13T10:18:12.226Z,916.88
2019-04-13T10:19:12.018Z,939.38
2019-04-13T10:20:12.119Z,978.75
2019-04-13T10:21:13.103Z,1040.63
2019-04-13T10:22:11.955Z,1108.13
2019-04-13T10:23:11.940Z,1153.13
2019-04-13T10:24:11.870Z,1170.00
2019-04-13T10:25:11.895Z,1192.50
2019-04-13T10:26:15.705Z,1186.88
2019-04-13T10:27:11.707Z,1181.25
2019-04-13T10:28:11.684Z,1181.25
2019-04-13T10:29:11.648Z,1181.25
2019-04-13T10:30:11.594Z,1186.88
2019-04-13T10:31:11.561Z,1175.63
2019-04-13T10:32:11.549Z,1164.38
2019-04-13T10:33:11.559Z,1153.13
2019-04-13T10:34:11.451Z,1147.50
2019-04-13T10:35:11.464Z,1125.00
2019-04-13T10:36:11.405Z,1102.50
2019-04-13T10:37:11.331Z,1080.00
2019-04-13T10:38:11.286Z,1080.00
2019-04-13T10:39:11.259Z,1096.88
2019-04-13T10:40:12.015Z,1091.25
2019-04-13T10:41:11.187Z,1091.25
2019-04-13T10:42:11.163Z,1080.00
2019-04-13T10:43:11.230Z,1057.50
2019-04-13T10:44:11.096Z,1063.13
2019-04-13T10:45:13.100Z,1057.50
2019-04-13T10:46:11.005Z,1068.75
2019-04-13T10:47:10.950Z,1080.00
2019-04-13T10:48:10.911Z,1096.88
2019-04-13T10:49:10.894Z,1113.75
2019-04-13T10:50:10.827Z,1125.00
2019-04-13T10:51:10.787Z,1136.25
2019-04-13T10:52:10.793Z,1141.88
2019-04-13T10:53:10.765Z,1147.50
2019-04-13T10:54:10.805Z,1153.13
2019-04-13T10:55:10.652Z,1153.13
2019-04-13T10:56:10.604Z,1153.13
2019-04-13T10:57:10.604Z,1147.50
2019-04-13T10:58:10.545Z,1130.63
2019-04-13T10:59:10.511Z,1102.50
2019-04-13T11:00:10.450Z,1074.38
2019-04-13T11:01:10.412Z,1063.13
2019-04-13T11:02:21.448Z,1074.38
2019-04-13T11:03:10.347Z,1113.75
2019-04-13T11:04:10.335Z,1181.25
2019-04-13T11:05:11.114Z,1265.63
2019-04-13T11:06:10.213Z,1338.75
2019-04-13T11:07:10.198Z,1389.38
2019-04-13T11:08:10.182Z,1428.75
2019-04-13T11:09:20.818Z,1456.88
2019-04-13T11:10:10.154Z,1456.88
2019-04-13T11:11:10.100Z,1462.50
2019-04-13T11:12:09.989Z,1423.13
2019-04-13T11:13:09.940Z,1423.13
2019-04-13T11:14:09.916Z,1473.75
2019-04-13T11:15:09.888Z,1546.88
2019-04-13T11:16:09.847Z,1608.75
2019-04-13T11:17:09.808Z,1631.25
2019-04-13T11:18:09.760Z,1614.38
2019-04-13T11:19:09.757Z,1563.75
2019-04-13T11:20:13.763Z,1535.63
2019-04-13T11:21:09.722Z,1496.25
2019-04-13T11:22:09.637Z,1456.88
2019-04-13T11:23:09.625Z,1485.00
2019-04-13T11:24:09.594Z,1569.38
2019-04-13T11:25:09.525Z,1636.88
2019-04-13T11:26:09.515Z,1805.63
2019-04-13T11:27:09.426Z,2441.25
2019-04-13T11:28:09.430Z,2362.50
2019-04-13T11:29:11.258Z,2475.00
2019-04-13T11:30:09.342Z,2469.38
2019-04-13T11:31:09.291Z,2463.75
2019-04-13T11:32:09.265Z,2598.75
2019-04-13T11:33:09.236Z,2576.25
2019-04-13T11:34:09.170Z,4005.00
2019-04-13T11:35:09.134Z,3774.38
2019-04-13T11:36:09.158Z,4021.88
2019-04-13T11:37:09.078Z,4201.88
2019-04-13T11:38:09.060Z,4066.88
2019-04-13T11:39:08.999Z,4072.50
2019-04-13T11:40:08.982Z,2885.63
2019-04-13T11:41:08.933Z,2857.50
2019-04-13T11:42:08.884Z,2885.63
2019-04-13T11:43:08.886Z,2576.25
2019-04-13T11:44:08.832Z,2559.38
2019-04-13T11:45:08.795Z,2913.75
2019-04-13T11:46:08.751Z,3262.50
2019-04-13T11:47:08.726Z,2486.25
2019-04-13T11:48:08.693Z,4179.38
2019-04-13T11:49:08.784Z,3813.75
2019-04-13T11:50:08.635Z,4010.63
2019-04-13T11:51:08.676Z,3853.13
2019-04-13T11:52:08.557Z,3166.88
2019-04-13T11:53:08.545Z,3555.00
2019-04-13T11:54:08.501Z,3346.88
2019-04-13T11:55:08.476Z,4005.00
2019-04-13T11:56:08.416Z,3594.38
2019-04-13T11:57:11.181Z,1743.75
2019-04-13T11:58:08.380Z,1839.38
2019-04-13T11:59:08.420Z,3571.88
2019-04-13T12:00:08.351Z,2165.63
2019-04-13T12:01:08.249Z,3076.88
2019-04-13T12:02:08.333Z,2430.00
2019-04-13T12:03:08.187Z,2025.00
2019-04-13T12:04:08.691Z,2013.75
2019-04-13T12:05:08.145Z,2160.00
2019-04-13T12:06:08.106Z,3228.75
2019-04-13T12:07:11.757Z,1856.25
2019-04-13T12:08:08.163Z,1845.00
2019-04-13T12:09:08.055Z,1951.88
2019-04-13T12:10:07.978Z,1721.25
2019-04-13T12:11:07.984Z,1721.25
2019-04-13T12:12:07.916Z,1783.13
2019-04-13T12:13:07.906Z,1850.63
2019-04-13T12:14:07.866Z,1974.38
2019-04-13T12:15:08.651Z,2075.63
2019-04-13T12:16:07.780Z,2092.50
2019-04-13T12:17:07.772Z,2137.50
2019-04-13T12:18:07.745Z,2176.88
2019-04-13T12:19:07.715Z,2255.63
2019-04-13T12:20:07.760Z,2401.88
2019-04-13T12:21:07.619Z,2891.25
2019-04-13T12:22:07.588Z,3555.00
2019-04-13T12:23:07.548Z,4421.25
2019-04-13T12:24:07.575Z,4365.00
2019-04-13T12:25:07.507Z,3718.13
2019-04-13T12:26:07.459Z,2497.50
2019-04-13T12:27:07.433Z,2131.88
2019-04-13T12:28:07.405Z,1929.38
2019-04-13T12:29:07.419Z,1766.25
2019-04-13T12:30:10.343Z,1659.38
2019-04-13T12:31:07.328Z,1608.75
2019-04-13T12:32:07.275Z,1608.75
2019-04-13T12:33:07.272Z,1659.38
2019-04-13T12:34:07.208Z,1963.13
2019-04-13T12:35:08.301Z,2953.13
2019-04-13T12:36:07.233Z,2728.13
2019-04-13T12:37:09.263Z,2739.38
2019-04-13T12:38:09.802Z,2041.88
2019-04-13T12:39:07.761Z,1805.63
2019-04-13T12:40:08.429Z,2013.75